Astatula, Florida
Current Conditions -  °F | °C
As of 10:53 AM on Sunday 23 Nov 2014 (Local Time) from KLEE Reporting Station
Broken Clouds Broken Clouds  
Wind Chill: 77°   Ceiling: 2000
Heat Index: 79°   Visibility: 10mi
Dew Point: 70°   Wind: 12mph
Humidity: 79%   Direction: 180°S
Pressure: 30.01"   Gusts: NA
Location:  28.71°N, 81.73°W
Report Text: KLEE 231553Z 18010KT 10SM BKN020 BKN027 25/21 A3001 RMK AO2 SLP162 T02500211
Loading
Personal Weather Stations






























Interactive Weather Map New forecast layout! Learn more

10-Day Weather Forecast

Advertisements
Track Severe Weather on mobile